Thomaston, Indiana
Current Conditions -  °F | °C
As of 11:21 AM on Sunday 23 Nov 2014 (Local Time) from KVPZ Reporting Station
Broken Clouds Broken Clouds  
Wind Chill: 50°   Ceiling: 2000
Heat Index: 50°   Visibility: 10mi
Dew Point: 44°   Wind: 8mph
Humidity: 80%   Direction: 150°SSE
Pressure: 29.7"   Gusts: NA
Location:  41.4092°N, 86.8646°W
Report Text: KVPZ 231721Z AUTO 15007KT 10SM BKN020 BKN095 10/07 A2970 RMK AO2 PRESFR T01000067 TSNO
Loading
Personal Weather Stations






























Interactive Weather Map New forecast layout! Learn more

10-Day Weather Forecast

Advertisements
Track Severe Weather on mobile